createdAt,value
2019-05-19T00:01:05.414Z,19.27
2019-05-19T00:03:33.796Z,20.50
2019-05-19T00:06:01.876Z,23.30
2019-05-19T00:08:29.974Z,21.10
2019-05-19T00:10:58.095Z,20.63
2019-05-19T00:13:26.372Z,19.30
2019-05-19T00:15:54.674Z,20.87
2019-05-19T00:18:22.798Z,20.23
2019-05-19T00:20:50.910Z,18.47
2019-05-19T00:23:18.992Z,19.53
2019-05-19T00:25:47.116Z,19.37
2019-05-19T00:28:15.169Z,22.33
2019-05-19T00:30:43.354Z,20.93
2019-05-19T00:33:11.470Z,21.87
2019-05-19T00:35:39.583Z,20.17
2019-05-19T00:38:07.614Z,21.27
2019-05-19T00:40:35.734Z,19.60
2019-05-19T00:43:03.816Z,20.87
2019-05-19T00:45:31.873Z,19.97
2019-05-19T00:48:00.036Z,19.47
2019-05-19T00:50:28.223Z,20.63
2019-05-19T00:52:56.496Z,20.07
2019-05-19T00:55:24.803Z,20.37
2019-05-19T00:57:53.272Z,20.63
2019-05-19T01:00:21.684Z,19.70
2019-05-19T01:02:49.808Z,20.13
2019-05-19T01:05:20.662Z,19.07
2019-05-19T01:07:47.624Z,19.70
2019-05-19T01:10:15.773Z,18.80
2019-05-19T01:12:43.895Z,19.63
2019-05-19T01:15:12.081Z,19.57
2019-05-19T01:17:40.427Z,20.40
2019-05-19T01:20:09.763Z,20.47
2019-05-19T01:22:37.858Z,21.57
2019-05-19T01:25:06.755Z,22.50
2019-05-19T01:27:34.860Z,21.50
2019-05-19T01:30:03.007Z,24.07
2019-05-19T01:32:31.129Z,21.43
2019-05-19T01:34:59.224Z,20.53
2019-05-19T01:37:27.316Z,20.70
2019-05-19T01:39:55.392Z,20.70
2019-05-19T01:42:23.498Z,22.10
2019-05-19T01:44:51.606Z,26.07
2019-05-19T01:47:19.726Z,24.27
2019-05-19T01:49:47.812Z,27.00
2019-05-19T01:52:15.949Z,26.07
2019-05-19T01:54:44.053Z,25.35
2019-05-19T01:57:12.182Z,23.70
2019-05-19T01:59:40.290Z,25.92
2019-05-19T02:02:08.409Z,23.87
2019-05-19T02:04:36.631Z,21.90
2019-05-19T02:07:05.788Z,20.83
2019-05-19T02:09:33.865Z,21.20
2019-05-19T02:12:02.010Z,21.60
2019-05-19T02:14:30.104Z,20.43
2019-05-19T02:16:58.186Z,20.83
2019-05-19T02:19:26.511Z,23.30
2019-05-19T02:24:22.021Z,27.65
2019-05-19T02:26:50.099Z,25.07
2019-05-19T03:06:05.497Z,23.23
2019-05-19T03:08:33.722Z,26.55
2019-05-19T03:11:02.036Z,27.85
2019-05-19T03:13:30.306Z,26.02
2019-05-19T03:15:58.440Z,27.82
2019-05-19T03:18:26.576Z,25.10
2019-05-19T03:21:09.768Z,25.00
2019-05-19T03:23:24.412Z,24.17
2019-05-19T03:25:52.519Z,25.55
2019-05-19T03:28:20.657Z,25.08
2019-05-19T03:31:14.124Z,26.95
2019-05-19T03:33:44.403Z,24.30
2019-05-19T03:36:12.497Z,30.10
2019-05-19T03:38:40.578Z,26.17
2019-05-19T03:41:08.668Z,24.33
2019-05-19T03:43:36.777Z,26.90
2019-05-19T03:46:04.866Z,27.47
2019-05-19T03:48:32.925Z,25.55
2019-05-19T03:51:02.819Z,28.05
2019-05-19T03:53:30.884Z,32.03
2019-05-19T03:55:58.984Z,30.08
2019-05-19T03:58:27.171Z,29.10
2019-05-19T04:00:55.241Z,36.48
2019-05-19T04:03:23.365Z,40.63
2019-05-19T04:05:51.491Z,38.63
2019-05-19T04:08:19.753Z,39.03
2019-05-19T04:10:48.707Z,39.88
2019-05-19T04:13:16.752Z,38.75
2019-05-19T04:15:44.871Z,38.42
2019-05-19T04:18:13.050Z,39.67
2019-05-19T04:20:41.156Z,39.58
2019-05-19T04:23:10.715Z,40.55
2019-05-19T04:25:38.912Z,36.85
2019-05-19T04:28:07.169Z,38.55
2019-05-19T04:30:35.235Z,40.03
2019-05-19T04:33:03.809Z,39.87
2019-05-19T04:35:31.945Z,40.67
2019-05-19T04:38:00.135Z,38.85
2019-05-19T04:40:28.244Z,40.20
2019-05-19T04:42:56.375Z,39.50
2019-05-19T04:45:24.553Z,41.15
2019-05-19T04:47:52.673Z,42.30
2019-05-19T04:50:20.828Z,41.80
2019-05-19T04:52:48.933Z,41.60
2019-05-19T04:55:17.051Z,41.13
2019-05-19T04:57:45.158Z,43.38
2019-05-19T05:00:13.373Z,44.73
2019-05-19T05:02:41.666Z,46.73
2019-05-19T05:05:10.863Z,48.05
2019-05-19T05:07:38.966Z,48.70
2019-05-19T05:10:07.237Z,47.78
2019-05-19T05:12:35.319Z,47.83
2019-05-19T05:15:03.438Z,47.58
2019-05-19T05:17:31.510Z,45.78
2019-05-19T05:19:59.623Z,46.28
2019-05-19T05:22:27.831Z,49.17
2019-05-19T05:24:56.032Z,49.20
2019-05-19T05:27:24.192Z,47.25
2019-05-19T05:29:52.274Z,49.00
2019-05-19T05:32:20.428Z,47.13
2019-05-19T05:34:48.546Z,49.53
2019-05-19T05:37:16.700Z,49.17
2019-05-19T05:39:44.869Z,47.90
2019-05-19T05:42:12.993Z,49.17
2019-05-19T05:44:41.074Z,46.68
2019-05-19T05:47:09.312Z,49.65
2019-05-19T05:49:37.394Z,50.55
2019-05-19T05:52:05.554Z,51.40
2019-05-19T05:54:33.690Z,52.85
2019-05-19T05:57:01.858Z,51.02
2019-05-19T05:59:30.038Z,53.43
2019-05-19T06:01:58.122Z,53.80
2019-05-19T06:04:26.295Z,54.80
2019-05-19T06:06:54.413Z,54.13
2019-05-19T06:09:22.564Z,55.83
2019-05-19T06:11:50.687Z,55.85
2019-05-19T06:14:18.855Z,54.73
2019-05-19T06:16:46.923Z,53.33
2019-05-19T06:19:15.256Z,51.08
2019-05-19T06:21:43.336Z,51.47
2019-05-19T06:24:11.419Z,49.42
2019-05-19T06:26:39.548Z,50.63
2019-05-19T06:29:07.630Z,54.75
2019-05-19T06:31:35.783Z,52.83
2019-05-19T06:34:03.909Z,52.85
2019-05-19T06:36:32.110Z,53.55
2019-05-19T06:39:00.284Z,51.40
2019-05-19T06:41:28.351Z,51.88
2019-05-19T06:43:56.446Z,53.40
2019-05-19T06:46:25.695Z,53.00
2019-05-19T06:48:53.957Z,54.55
2019-05-19T06:51:22.052Z,51.90
2019-05-19T06:53:50.177Z,53.83
2019-05-19T06:56:18.416Z,51.95
2019-05-19T06:58:46.655Z,51.63
2019-05-19T07:01:14.819Z,53.17
2019-05-19T07:03:42.961Z,51.77
2019-05-19T07:06:11.036Z,54.65
2019-05-19T07:08:39.143Z,55.30
2019-05-19T07:11:07.324Z,55.17
2019-05-19T07:13:35.480Z,57.43
2019-05-19T07:16:03.603Z,57.83
2019-05-19T07:18:31.684Z,57.00
2019-05-19T07:21:00.872Z,53.52
2019-05-19T07:23:29.097Z,55.08
2019-05-19T07:25:57.256Z,59.25
2019-05-19T07:28:25.386Z,58.50
2019-05-19T07:30:53.513Z,59.58
2019-05-19T07:33:21.799Z,58.40
2019-05-19T07:35:49.928Z,56.77
2019-05-19T07:38:18.014Z,55.67
2019-05-19T07:40:46.135Z,54.03
2019-05-19T07:43:14.384Z,54.73
2019-05-19T07:45:42.489Z,48.48
2019-05-19T07:48:10.729Z,49.23
2019-05-19T07:50:38.954Z,46.20
2019-05-19T07:53:07.035Z,46.30
2019-05-19T07:55:35.126Z,45.57
2019-05-19T07:58:08.088Z,43.43
2019-05-19T08:00:36.316Z,45.63
2019-05-19T08:03:04.525Z,50.58
2019-05-19T08:05:32.757Z,45.95
2019-05-19T08:08:02.823Z,48.17
2019-05-19T08:10:30.939Z,46.08
2019-05-19T08:12:59.020Z,45.23
2019-05-19T08:15:27.097Z,40.50
2019-05-19T08:17:55.228Z,41.08
2019-05-19T08:20:23.302Z,44.50
2019-05-19T08:22:51.586Z,41.70
2019-05-19T08:25:19.679Z,43.55
2019-05-19T08:27:47.783Z,41.88
2019-05-19T08:30:16.125Z,43.50
2019-05-19T08:32:44.202Z,42.95
2019-05-19T08:35:12.385Z,44.65
2019-05-19T08:37:40.473Z,43.40
2019-05-19T08:40:08.658Z,41.80
2019-05-19T08:42:36.797Z,38.98
2019-05-19T08:45:05.303Z,37.98
2019-05-19T08:47:33.402Z,38.38
2019-05-19T08:50:02.117Z,37.42
2019-05-19T08:52:30.327Z,36.53
2019-05-19T08:54:58.488Z,36.00
2019-05-19T08:57:26.641Z,37.58
2019-05-19T08:59:54.776Z,35.15
2019-05-19T09:02:22.866Z,35.40
2019-05-19T09:04:51.018Z,31.30
2019-05-19T09:07:19.101Z,30.30
2019-05-19T09:09:47.490Z,29.07
2019-05-19T09:12:15.619Z,30.90
2019-05-19T09:14:43.728Z,27.30
2019-05-19T09:17:11.914Z,26.02
2019-05-19T09:19:40.067Z,24.57
2019-05-19T09:22:08.795Z,24.32
2019-05-19T09:24:37.463Z,22.00
2019-05-19T09:27:05.699Z,20.43
2019-05-19T09:29:33.826Z,19.90
2019-05-19T09:32:02.027Z,20.08
2019-05-19T09:34:30.130Z,18.67
2019-05-19T09:36:58.220Z,16.82
2019-05-19T09:39:26.325Z,16.97
2019-05-19T09:41:54.401Z,11.80
2019-05-19T09:44:22.510Z,10.88
2019-05-19T09:46:50.601Z,10.35
2019-05-19T09:49:34.348Z,10.53
2019-05-19T09:52:03.106Z,11.53
2019-05-19T09:54:44.138Z,11.20
2019-05-19T09:57:02.432Z,9.38
2019-05-19T09:59:30.557Z,8.85
2019-05-19T10:01:58.687Z,9.20
2019-05-19T10:04:26.825Z,10.13
2019-05-19T10:06:54.936Z,9.80
2019-05-19T10:09:39.172Z,10.98
2019-05-19T10:12:07.287Z,10.63
2019-05-19T10:14:35.357Z,10.30
2019-05-19T10:17:03.434Z,10.30
2019-05-19T10:19:31.551Z,11.20
2019-05-19T10:21:59.667Z,10.80
2019-05-19T10:24:27.835Z,11.50
2019-05-19T10:26:55.882Z,10.97
2019-05-19T10:29:23.992Z,10.78
2019-05-19T10:31:54.397Z,9.93
2019-05-19T10:34:21.797Z,10.00
2019-05-19T10:36:49.927Z,10.45
2019-05-19T10:39:18.034Z,9.78
2019-05-19T10:41:46.112Z,7.10
2019-05-19T10:44:14.231Z,6.37
2019-05-19T10:46:42.325Z,6.28
2019-05-19T10:49:10.513Z,5.80
2019-05-19T10:51:38.740Z,5.90
2019-05-19T10:54:06.791Z,6.30
2019-05-19T10:58:42.128Z,5.65
2019-05-19T11:01:11.350Z,6.70
2019-05-19T11:03:40.583Z,6.40
2019-05-19T11:06:09.912Z,6.92
2019-05-19T11:08:39.142Z,7.17
2019-05-19T11:11:08.460Z,7.60
2019-05-19T11:13:37.657Z,7.40
2019-05-19T11:16:06.928Z,6.78
2019-05-19T11:18:36.081Z,6.70
2019-05-19T11:21:05.346Z,6.40
2019-05-19T11:23:34.625Z,7.12
2019-05-19T11:26:04.062Z,7.80
2019-05-19T11:28:33.264Z,6.87
2019-05-19T11:31:02.580Z,8.08
2019-05-19T11:33:33.004Z,7.70
2019-05-19T11:36:02.317Z,7.90
2019-05-19T11:38:31.502Z,6.97
2019-05-19T11:41:00.720Z,6.87
2019-05-19T11:43:29.951Z,7.17
2019-05-19T11:45:59.286Z,6.87
2019-05-19T11:48:29.575Z,7.15
2019-05-19T11:50:59.007Z,7.42
2019-05-19T11:53:28.151Z,7.15
2019-05-19T11:56:06.197Z,7.05
2019-05-19T11:58:28.769Z,6.65
2019-05-19T12:00:57.985Z,6.47
2019-05-19T12:03:27.163Z,7.10
2019-05-19T12:05:56.356Z,6.67
2019-05-19T12:08:25.572Z,6.67
2019-05-19T12:10:54.800Z,6.10
2019-05-19T12:13:23.984Z,6.50
2019-05-19T12:15:53.148Z,6.55
2019-05-19T12:18:22.397Z,5.73
2019-05-19T12:20:51.629Z,5.58
2019-05-19T12:23:20.843Z,5.95
2019-05-19T12:25:50.048Z,6.72
2019-05-19T12:28:19.224Z,5.30
2019-05-19T12:30:48.426Z,6.20
2019-05-19T12:33:17.579Z,6.80
2019-05-19T12:35:46.799Z,7.78
2019-05-19T12:38:15.997Z,6.17
2019-05-19T12:40:45.145Z,5.93
2019-05-19T12:43:14.380Z,6.30
2019-05-19T12:45:43.736Z,6.50
2019-05-19T12:48:13.118Z,7.97
2019-05-19T12:50:42.485Z,6.45
2019-05-19T12:53:11.825Z,6.30
2019-05-19T12:55:40.987Z,6.67
2019-05-19T12:58:10.166Z,6.10
2019-05-19T13:00:40.187Z,6.08
2019-05-19T13:03:09.466Z,6.08
2019-05-19T13:05:38.676Z,6.53
2019-05-19T13:08:11.364Z,6.58
2019-05-19T13:10:39.203Z,6.00
2019-05-19T13:13:08.427Z,6.58
2019-05-19T13:15:37.786Z,5.42
2019-05-19T13:18:06.996Z,5.37
2019-05-19T13:20:36.350Z,5.10
2019-05-19T13:23:05.556Z,5.20
2019-05-19T13:25:37.053Z,5.33
2019-05-19T13:28:06.280Z,5.12
2019-05-19T13:30:35.512Z,4.87
2019-05-19T13:33:05.397Z,4.60
2019-05-19T13:35:34.633Z,4.90
2019-05-19T13:38:03.967Z,5.85
2019-05-19T13:40:33.317Z,5.80
2019-05-19T13:43:02.504Z,6.17
2019-05-19T13:45:31.887Z,6.00
2019-05-19T13:48:03.015Z,5.93
2019-05-19T13:50:32.397Z,5.73
2019-05-19T13:53:01.656Z,6.13
2019-05-19T13:55:30.905Z,6.83
2019-05-19T13:58:00.102Z,6.50
2019-05-19T14:00:29.254Z,7.83
2019-05-19T14:02:58.449Z,6.30
2019-05-19T14:05:27.645Z,6.13
2019-05-19T14:07:58.939Z,6.70
2019-05-19T14:10:28.129Z,5.83
2019-05-19T14:37:40.238Z,4.90
2019-05-19T14:40:09.856Z,5.20
2019-05-19T14:43:00.741Z,4.90
2019-05-19T14:45:30.174Z,4.90
2019-05-19T14:47:59.448Z,5.10
2019-05-19T14:50:30.295Z,5.90
2019-05-19T14:52:59.688Z,4.80
2019-05-19T14:55:29.059Z,5.40
2019-05-19T14:57:58.322Z,6.00
2019-05-19T15:00:27.505Z,6.07
2019-05-19T15:02:56.737Z,5.93
2019-05-19T15:05:25.974Z,6.13
2019-05-19T15:07:55.293Z,5.93
2019-05-19T15:10:24.498Z,6.20
2019-05-19T15:12:53.834Z,6.10
2019-05-19T15:15:23.000Z,5.90
2019-05-19T15:17:52.207Z,6.10
2019-05-19T15:20:21.458Z,5.83
2019-05-19T15:22:50.755Z,6.17
2019-05-19T15:25:19.985Z,5.87
2019-05-19T15:27:59.755Z,4.97
2019-05-19T15:30:20.103Z,5.10
2019-05-19T15:32:49.379Z,4.80
2019-05-19T15:35:18.650Z,7.30
2019-05-19T15:37:47.865Z,5.58
2019-05-19T15:40:17.127Z,4.90
2019-05-19T15:42:46.275Z,5.10
2019-05-19T15:45:15.621Z,4.85
2019-05-19T15:47:45.049Z,5.33
2019-05-19T15:50:14.251Z,5.28
2019-05-19T15:52:43.612Z,8.03
2019-05-19T15:55:12.922Z,8.78
2019-05-19T15:57:45.050Z,8.95
2019-05-19T16:00:14.808Z,34.33
2019-05-19T16:02:44.093Z,33.25
2019-05-19T16:05:13.513Z,29.63
2019-05-19T16:07:44.660Z,29.67
2019-05-19T16:10:14.727Z,28.23
2019-05-19T16:12:43.916Z,25.27
2019-05-19T16:15:15.304Z,23.83
2019-05-19T16:17:44.516Z,22.60
2019-05-19T16:20:17.234Z,21.30
2019-05-19T16:22:46.465Z,23.77
2019-05-19T16:25:15.634Z,22.53
2019-05-19T16:27:44.958Z,18.60
2019-05-19T16:30:14.347Z,17.40
2019-05-19T16:32:43.604Z,17.87
2019-05-19T16:35:12.940Z,18.57
2019-05-19T16:37:42.725Z,16.57
2019-05-19T16:40:12.164Z,21.37
2019-05-19T16:42:41.322Z,19.63
2019-05-19T16:45:10.742Z,17.37
2019-05-19T16:47:39.929Z,18.30
2019-05-19T16:50:09.294Z,19.37
2019-05-19T16:52:38.475Z,18.00
2019-05-19T16:55:23.294Z,14.83
2019-05-19T16:57:52.472Z,15.13
2019-05-19T17:00:22.327Z,14.07
2019-05-19T17:02:51.568Z,14.70
2019-05-19T17:05:20.883Z,13.30
2019-05-19T17:07:50.146Z,12.97
2019-05-19T17:10:19.625Z,14.50
2019-05-19T17:12:48.975Z,13.53
2019-05-19T17:15:18.524Z,14.90
2019-05-19T17:17:47.850Z,15.40
2019-05-19T17:20:17.172Z,15.80
2019-05-19T17:22:46.382Z,15.07
2019-05-19T17:25:15.652Z,14.63
2019-05-19T17:27:44.866Z,15.47
2019-05-19T17:30:14.645Z,15.80
2019-05-19T17:32:45.730Z,17.33
2019-05-19T17:35:16.226Z,15.83
2019-05-19T17:37:45.566Z,17.03
2019-05-19T17:40:15.664Z,15.77
2019-05-19T17:42:44.923Z,16.47
2019-05-19T17:45:15.388Z,16.60
2019-05-19T17:47:44.964Z,18.93
2019-05-19T17:50:15.662Z,16.47
2019-05-19T17:52:44.956Z,17.67
2019-05-19T17:55:15.697Z,17.60
2019-05-19T17:57:45.345Z,16.97
2019-05-19T18:00:18.320Z,18.17
2019-05-19T18:02:49.017Z,16.67
2019-05-19T18:05:21.455Z,17.17
2019-05-19T18:07:51.167Z,16.40
2019-05-19T18:10:21.464Z,17.63
2019-05-19T18:12:54.681Z,18.57
2019-05-19T18:15:24.253Z,17.40
2019-05-19T18:17:55.762Z,17.43
2019-05-19T18:20:25.079Z,18.63
2019-05-19T18:22:57.031Z,17.30
2019-05-19T18:25:29.852Z,17.87
2019-05-19T18:27:59.754Z,19.17
2019-05-19T18:30:29.596Z,17.80
2019-05-19T18:32:59.223Z,18.07
2019-05-19T18:35:29.736Z,19.57
2019-05-19T18:38:02.633Z,19.27
2019-05-19T18:40:32.211Z,21.57
2019-05-19T18:43:04.125Z,17.57
2019-05-19T18:45:33.402Z,17.33
2019-05-19T18:48:02.885Z,15.27
2019-05-19T18:50:32.296Z,16.17
2019-05-19T18:53:09.138Z,15.00
2019-05-19T18:55:40.286Z,15.97
2019-05-19T18:58:10.989Z,15.03
2019-05-19T19:00:40.563Z,14.53
2019-05-19T19:03:10.111Z,14.67
2019-05-19T19:05:39.883Z,14.90
2019-05-19T19:08:09.685Z,14.40
2019-05-19T19:10:39.419Z,12.50
2019-05-19T19:13:09.133Z,14.40
2019-05-19T19:15:41.643Z,13.27
2019-05-19T19:18:11.947Z,12.97
2019-05-19T19:20:41.754Z,12.73
2019-05-19T19:23:11.514Z,14.53
2019-05-19T19:25:40.969Z,13.23
2019-05-19T19:28:10.722Z,12.93
2019-05-19T19:30:40.166Z,13.33
2019-05-19T19:33:09.477Z,12.47
2019-05-19T19:35:39.764Z,12.97
2019-05-19T19:38:13.163Z,12.87
2019-05-19T19:40:42.395Z,12.70
2019-05-19T19:43:11.875Z,12.53
2019-05-19T19:45:41.442Z,12.93
2019-05-19T19:48:11.921Z,13.57
2019-05-19T19:50:43.037Z,13.47
2019-05-19T19:53:12.951Z,13.93
2019-05-19T19:55:43.058Z,14.13
2019-05-19T19:58:13.789Z,13.90
2019-05-19T20:00:44.963Z,13.57
2019-05-19T20:03:16.495Z,14.17
2019-05-19T20:05:47.487Z,15.03
2019-05-19T20:08:17.095Z,16.17
2019-05-19T20:10:48.407Z,15.33
2019-05-19T20:13:19.029Z,14.70
2019-05-19T20:15:48.801Z,15.13
2019-05-19T20:18:18.314Z,14.90
2019-05-19T20:20:47.584Z,14.97
2019-05-19T20:23:16.798Z,14.30
2019-05-19T20:25:46.017Z,15.30
2019-05-19T20:28:16.266Z,13.70
2019-05-19T20:30:45.505Z,15.33
2019-05-19T20:33:14.743Z,15.23
2019-05-19T20:35:46.548Z,16.13
2019-05-19T20:38:16.405Z,15.80
2019-05-19T20:40:46.924Z,15.90
2019-05-19T20:43:16.147Z,16.27
2019-05-19T20:45:45.425Z,13.67
2019-05-19T20:48:15.034Z,14.50
2019-05-19T20:50:44.384Z,15.07
2019-05-19T20:53:13.572Z,14.63
2019-05-19T20:55:42.838Z,15.27
2019-05-19T20:58:12.178Z,14.57
2019-05-19T21:00:49.941Z,14.13
2019-05-19T21:03:12.982Z,13.60
2019-05-19T21:05:42.155Z,14.03
2019-05-19T21:08:11.459Z,13.60
2019-05-19T21:10:40.916Z,15.03
2019-05-19T21:13:10.268Z,14.50
2019-05-19T21:15:39.604Z,15.23
2019-05-19T21:18:08.860Z,15.10
2019-05-19T21:20:38.113Z,15.83
2019-05-19T21:23:07.286Z,15.57
2019-05-19T21:25:36.747Z,16.40
2019-05-19T21:28:05.989Z,15.97
2019-05-19T21:30:35.492Z,16.50
2019-05-19T21:33:05.894Z,16.80
2019-05-19T21:35:35.308Z,17.20
2019-05-19T21:38:05.616Z,17.03
2019-05-19T21:40:34.822Z,15.87
2019-05-19T21:43:04.089Z,16.57
2019-05-19T21:45:33.260Z,15.53
2019-05-19T21:48:02.625Z,17.33
2019-05-19T21:50:31.821Z,16.60
2019-05-19T21:53:00.992Z,15.53
2019-05-19T21:55:30.209Z,18.77
2019-05-19T21:57:59.410Z,15.43
2019-05-19T22:00:30.696Z,17.93
2019-05-19T22:02:59.995Z,17.23
2019-05-19T22:05:29.191Z,16.83
2019-05-19T22:08:07.899Z,17.57
2019-05-19T22:10:37.215Z,17.53
2019-05-19T22:13:06.415Z,17.57
2019-05-19T22:15:35.824Z,17.90
2019-05-19T22:18:05.427Z,17.97
2019-05-19T22:20:34.972Z,18.43
2019-05-19T22:23:04.183Z,17.70
2019-05-19T22:25:33.386Z,18.43
2019-05-19T22:28:02.655Z,19.80
2019-05-19T22:30:31.967Z,19.60
2019-05-19T22:33:01.125Z,18.63
2019-05-19T22:35:30.297Z,17.47
2019-05-19T22:37:59.502Z,17.87
2019-05-19T22:40:28.670Z,18.10
2019-05-19T22:42:57.912Z,18.17
2019-05-19T22:45:27.203Z,18.07
2019-05-19T22:47:56.510Z,18.47
2019-05-19T22:50:25.711Z,19.50
2019-05-19T22:52:54.990Z,17.47
2019-05-19T22:55:24.159Z,19.17
2019-05-19T22:57:53.482Z,19.47
2019-05-19T23:00:22.964Z,18.30
2019-05-19T23:02:52.157Z,17.10
2019-05-19T23:05:21.341Z,18.30
2019-05-19T23:07:51.800Z,17.43
2019-05-19T23:10:22.511Z,17.63
2019-05-19T23:12:51.687Z,18.30
2019-05-19T23:15:21.164Z,19.17
2019-05-19T23:17:50.502Z,18.40
2019-05-19T23:20:19.643Z,19.57
2019-05-19T23:22:48.934Z,17.77
2019-05-19T23:25:18.246Z,19.53
2019-05-19T23:27:49.264Z,24.20
2019-05-19T23:30:18.822Z,20.07
2019-05-19T23:32:47.989Z,20.90
2019-05-19T23:35:17.337Z,20.20
2019-05-19T23:37:46.450Z,20.67
2019-05-19T23:40:15.756Z,23.73
2019-05-19T23:42:44.912Z,22.23
2019-05-19T23:45:14.082Z,23.33
2019-05-19T23:47:43.504Z,23.73
2019-05-19T23:50:12.913Z,22.47
2019-05-19T23:52:42.166Z,22.27
2019-05-19T23:55:13.794Z,20.93
2019-05-19T23:57:42.960Z,21.90
